createdAt,value
2019-04-07T00:00:38.126Z,68.77
2019-04-07T00:03:07.973Z,64.87
2019-04-07T00:05:37.731Z,63.50
2019-04-07T00:08:06.820Z,69.47
2019-04-07T00:10:35.633Z,66.27
2019-04-07T00:13:05.204Z,63.90
2019-04-07T00:15:34.759Z,65.23
2019-04-07T00:18:03.643Z,66.57
2019-04-07T00:20:32.909Z,68.43
2019-04-07T00:23:02.188Z,66.30
2019-04-07T00:25:31.005Z,64.40
2019-04-07T00:27:59.744Z,64.87
2019-04-07T00:30:29.239Z,67.07
2019-04-07T00:32:58.419Z,64.90
2019-04-07T00:35:31.993Z,67.70
2019-04-07T00:37:58.273Z,65.93
2019-04-07T00:40:27.166Z,66.23
2019-04-07T00:42:55.931Z,68.80
2019-04-07T00:45:25.150Z,68.07
2019-04-07T00:47:54.322Z,68.10
2019-04-07T00:50:23.360Z,68.27
2019-04-07T00:52:53.007Z,67.73
2019-04-07T00:55:22.126Z,66.63
2019-04-07T00:57:51.663Z,67.47
2019-04-07T01:00:24.908Z,66.57
2019-04-07T01:02:54.116Z,67.13
2019-04-07T01:05:34.749Z,68.70
2019-04-07T01:07:54.254Z,68.50
2019-04-07T01:10:23.275Z,69.70
2019-04-07T01:12:52.234Z,66.23
2019-04-07T01:15:21.037Z,68.03
2019-04-07T01:17:49.922Z,69.30
2019-04-07T01:20:19.422Z,70.10
2019-04-07T01:22:48.721Z,69.53
2019-04-07T01:25:17.685Z,69.63
2019-04-07T01:27:46.671Z,68.80
2019-04-07T01:30:16.063Z,68.53
2019-04-07T01:32:48.326Z,68.50
2019-04-07T01:35:18.876Z,70.83
2019-04-07T01:37:47.654Z,69.03
2019-04-07T01:40:16.852Z,71.03
2019-04-07T01:42:53.002Z,70.17
2019-04-07T01:45:44.566Z,70.57
2019-04-07T01:48:31.648Z,68.83
2019-04-07T01:51:34.930Z,69.03
2019-04-07T01:54:17.567Z,70.43
2019-04-07T01:56:54.199Z,71.27
2019-04-07T01:59:40.934Z,70.90
2019-04-07T02:02:32.448Z,68.97
2019-04-07T02:05:19.860Z,72.97
2019-04-07T02:08:07.931Z,72.57
2019-04-07T02:10:49.606Z,71.80
2019-04-07T02:13:27.506Z,72.90
2019-04-07T02:16:15.703Z,71.03
2019-04-07T02:19:09.633Z,71.37
2019-04-07T02:21:56.624Z,70.67
2019-04-07T02:24:33.401Z,71.87
2019-04-07T02:27:18.261Z,75.03
2019-04-07T02:30:05.892Z,73.50
2019-04-07T02:32:42.183Z,72.37
2019-04-07T02:35:33.311Z,76.27
2019-04-07T02:38:14.550Z,76.03
2019-04-07T02:40:56.973Z,73.00
2019-04-07T02:43:36.598Z,73.83
2019-04-07T02:46:20.638Z,73.33
2019-04-07T02:48:58.675Z,75.33
2019-04-07T02:51:58.546Z,75.03
2019-04-07T02:54:59.248Z,72.20
2019-04-07T02:57:40.509Z,73.00
2019-04-07T03:00:27.904Z,71.40
2019-04-07T03:03:14.678Z,74.50
2019-04-07T03:06:03.519Z,74.77
2019-04-07T03:08:52.613Z,75.90
2019-04-07T03:11:37.740Z,74.37
2019-04-07T03:14:17.816Z,75.37
2019-04-07T03:16:54.302Z,72.67
2019-04-07T03:19:41.341Z,74.97
2019-04-07T03:22:29.183Z,75.17
2019-04-07T03:25:06.618Z,73.10
2019-04-07T03:27:51.578Z,75.60
2019-04-07T03:30:38.604Z,75.93
2019-04-07T03:33:30.053Z,75.00
2019-04-07T03:36:13.815Z,73.67
2019-04-07T03:39:03.529Z,74.40
2019-04-07T03:41:40.945Z,74.13
2019-04-07T03:44:15.019Z,77.83
2019-04-07T03:47:07.245Z,75.10
2019-04-07T03:49:45.666Z,76.17
2019-04-07T03:52:32.261Z,78.47
2019-04-07T03:55:17.172Z,76.47
2019-04-07T03:58:05.274Z,74.53
2019-04-07T04:01:33.680Z,75.27
2019-04-07T04:04:10.262Z,73.63
2019-04-07T04:06:57.469Z,77.23
2019-04-07T04:09:37.941Z,76.70
2019-04-07T04:12:15.844Z,76.77
2019-04-07T04:14:50.838Z,76.03
2019-04-07T04:17:19.922Z,75.90
2019-04-07T04:19:49.580Z,76.77
2019-04-07T04:22:18.788Z,78.20
2019-04-07T04:24:47.673Z,75.67
2019-04-07T04:27:16.990Z,74.53
2019-04-07T04:29:46.552Z,78.50
2019-04-07T04:32:16.661Z,77.47
2019-04-07T04:34:46.630Z,75.30
2019-04-07T04:37:16.649Z,76.30
2019-04-07T04:39:46.438Z,76.93
2019-04-07T04:42:16.004Z,75.37
2019-04-07T04:44:45.673Z,74.90
2019-04-07T04:47:14.638Z,77.13
2019-04-07T04:49:44.518Z,79.00
2019-04-07T04:52:13.909Z,74.13
2019-04-07T04:54:42.816Z,75.47
2019-04-07T04:57:11.733Z,74.90
2019-04-07T04:59:40.636Z,72.90
2019-04-07T05:02:10.577Z,74.13
2019-04-07T05:04:40.030Z,76.00
2019-04-07T05:07:08.841Z,76.93
2019-04-07T05:09:44.027Z,73.30
2019-04-07T05:12:08.421Z,75.50
2019-04-07T05:14:37.760Z,75.23
2019-04-07T05:17:06.563Z,72.97
2019-04-07T05:19:35.594Z,75.43
2019-04-07T05:22:04.962Z,75.27
2019-04-07T05:24:35.021Z,73.70
2019-04-07T05:27:04.415Z,75.20
2019-04-07T05:29:33.962Z,76.30
2019-04-07T05:32:06.829Z,74.90
2019-04-07T05:34:35.701Z,71.93
2019-04-07T05:37:04.467Z,76.77
2019-04-07T05:39:33.126Z,75.00
2019-04-07T05:42:02.285Z,75.77
2019-04-07T05:44:31.051Z,73.23
2019-04-07T05:46:59.728Z,72.27
2019-04-07T05:49:28.523Z,71.93
2019-04-07T05:52:01.381Z,72.60
2019-04-07T05:54:27.629Z,71.97
2019-04-07T05:57:00.337Z,70.70
2019-04-07T05:59:29.591Z,71.93
2019-04-07T06:02:03.948Z,70.90
2019-04-07T06:08:29.180Z,71.33
2019-04-07T06:10:57.520Z,69.00
2019-04-07T06:13:26.241Z,72.73
2019-04-07T06:15:57.525Z,72.10
2019-04-07T06:18:27.005Z,72.63
2019-04-07T06:21:02.916Z,71.90
2019-04-07T06:23:31.848Z,68.33
2019-04-07T06:26:00.972Z,69.77
2019-04-07T06:28:29.723Z,68.67
2019-04-07T06:31:00.781Z,69.87
2019-04-07T06:33:30.473Z,69.10
2019-04-07T06:35:59.553Z,69.00
2019-04-07T06:38:33.086Z,67.47
2019-04-07T06:41:00.901Z,68.20
2019-04-07T06:43:28.965Z,68.57
2019-04-07T06:46:17.448Z,65.43
2019-04-07T06:49:12.348Z,67.37
2019-04-07T06:52:05.242Z,65.53
2019-04-07T06:54:46.043Z,62.00
2019-04-07T06:57:25.465Z,62.40
2019-04-07T07:00:11.844Z,60.73
2019-04-07T07:02:51.604Z,62.23
2019-04-07T07:05:45.371Z,62.53
2019-04-07T07:08:44.511Z,61.50
2019-04-07T07:11:27.501Z,60.80
2019-04-07T07:13:59.274Z,62.07
2019-04-07T07:16:53.281Z,63.07
2019-04-07T07:19:44.578Z,62.90
2019-04-07T07:22:16.625Z,60.87
2019-04-07T07:24:47.141Z,60.93
2019-04-07T07:27:16.587Z,58.73
2019-04-07T07:29:47.493Z,60.67
2019-04-07T07:32:16.927Z,62.57
2019-04-07T07:34:46.619Z,60.30
2019-04-07T07:37:15.837Z,60.90
2019-04-07T07:39:45.212Z,59.70
2019-04-07T07:42:14.787Z,60.17
2019-04-07T07:44:43.893Z,59.03
2019-04-07T07:47:13.337Z,61.00
2019-04-07T07:49:42.425Z,59.53
2019-04-07T07:52:11.605Z,60.27
2019-04-07T07:54:41.064Z,58.43
2019-04-07T07:57:09.919Z,58.90
2019-04-07T07:59:39.633Z,56.97
2019-04-07T08:02:09.814Z,57.60
2019-04-07T08:04:41.316Z,58.83
2019-04-07T08:07:15.484Z,55.93
2019-04-07T08:09:49.212Z,56.63
2019-04-07T08:12:19.007Z,56.37
2019-04-07T08:14:52.186Z,55.27
2019-04-07T08:17:21.153Z,56.37
2019-04-07T08:19:50.246Z,54.33
2019-04-07T08:22:27.609Z,52.13
2019-04-07T08:24:51.890Z,51.57
2019-04-07T08:27:20.557Z,52.93
2019-04-07T08:29:49.334Z,53.03
2019-04-07T08:32:18.675Z,51.53
2019-04-07T08:34:47.978Z,51.00
2019-04-07T08:37:16.657Z,51.65
2019-04-07T08:39:45.988Z,50.50
2019-04-07T08:42:18.507Z,50.57
2019-04-07T08:44:45.191Z,50.83
2019-04-07T08:47:19.161Z,48.98
2019-04-07T08:49:44.340Z,50.37
2019-04-07T08:52:13.009Z,49.38
2019-04-07T08:54:42.168Z,50.03
2019-04-07T08:57:11.003Z,49.15
2019-04-07T08:59:42.373Z,48.73
2019-04-07T09:02:10.327Z,49.67
2019-04-07T09:04:39.947Z,48.50
2019-04-07T09:07:09.065Z,49.20
2019-04-07T09:09:44.844Z,48.23
2019-04-07T09:12:09.275Z,47.93
2019-04-07T09:14:39.849Z,47.88
2019-04-07T09:17:32.121Z,47.13
2019-04-07T09:20:17.920Z,47.62
2019-04-07T09:22:54.564Z,44.98
2019-04-07T09:26:00.169Z,48.25
2019-04-07T09:28:40.689Z,47.13
2019-04-07T09:31:24.748Z,47.50
2019-04-07T09:34:18.936Z,46.73
2019-04-07T09:37:07.674Z,48.68
2019-04-07T09:39:59.503Z,45.40
2019-04-07T09:42:51.707Z,46.60
2019-04-07T09:45:43.659Z,48.55
2019-04-07T09:48:41.289Z,47.08
2019-04-07T09:51:29.795Z,49.45
2019-04-07T09:54:30.220Z,48.48
2019-04-07T09:57:35.472Z,48.10
2019-04-07T10:00:10.425Z,45.03
2019-04-07T10:03:17.017Z,46.08
2019-04-07T10:06:01.560Z,47.05
2019-04-07T10:08:55.476Z,45.55
2019-04-07T10:11:33.884Z,45.28
2019-04-07T10:14:12.944Z,44.53
2019-04-07T10:16:59.554Z,44.75
2019-04-07T10:19:47.820Z,44.73
2019-04-07T10:22:26.638Z,44.33
2019-04-07T10:25:13.221Z,43.30
2019-04-07T10:27:55.518Z,43.48
2019-04-07T10:30:32.381Z,42.38
2019-04-07T10:33:20.177Z,43.05
2019-04-07T10:36:07.901Z,43.85
2019-04-07T10:38:56.487Z,44.40
2019-04-07T10:41:51.308Z,42.50
2019-04-07T10:44:38.141Z,42.90
2019-04-07T10:47:25.900Z,42.73
2019-04-07T10:50:12.633Z,42.33
2019-04-07T10:53:03.764Z,38.75
2019-04-07T10:55:41.297Z,37.63
2019-04-07T10:58:20.860Z,37.90
2019-04-07T11:01:07.564Z,36.60
2019-04-07T11:03:55.642Z,38.05
2019-04-07T11:06:42.010Z,36.08
2019-04-07T11:09:38.942Z,36.65
2019-04-07T11:12:25.420Z,35.50
2019-04-07T11:15:03.449Z,34.20
2019-04-07T11:17:57.117Z,35.10
2019-04-07T11:20:49.468Z,34.13
2019-04-07T11:23:34.834Z,34.33
2019-04-07T11:26:18.070Z,31.57
2019-04-07T11:29:03.560Z,32.88
2019-04-07T11:31:36.998Z,31.27
2019-04-07T11:34:19.382Z,30.97
2019-04-07T11:36:59.535Z,30.45
2019-04-07T11:39:35.141Z,29.55
2019-04-07T11:42:29.686Z,29.70
2019-04-07T11:45:13.813Z,27.10
2019-04-07T11:47:51.451Z,23.92
2019-04-07T11:50:35.104Z,24.47
2019-04-07T11:53:09.087Z,27.00
2019-04-07T11:55:54.012Z,23.87
2019-04-07T11:58:41.967Z,22.32
2019-04-07T12:01:24.058Z,21.82
2019-04-07T12:04:16.034Z,17.17
2019-04-07T12:07:02.503Z,18.17
2019-04-07T12:09:57.043Z,17.35
2019-04-07T12:12:46.208Z,15.53
2019-04-07T12:15:33.796Z,15.75
2019-04-07T12:18:32.878Z,16.85
2019-04-07T12:21:23.261Z,16.95
2019-04-07T12:24:13.547Z,16.93
2019-04-07T12:27:01.963Z,17.23
2019-04-07T12:30:01.191Z,16.85
2019-04-07T12:32:48.637Z,17.52
2019-04-07T12:35:42.928Z,17.42
2019-04-07T12:38:26.349Z,18.17
2019-04-07T12:41:21.697Z,18.27
2019-04-07T12:44:08.418Z,18.60
2019-04-07T12:46:55.740Z,19.07
2019-04-07T12:49:45.519Z,19.82
2019-04-07T12:52:42.145Z,20.62
2019-04-07T12:55:25.071Z,20.27
2019-04-07T12:58:00.948Z,16.90
2019-04-07T13:00:58.255Z,15.60
2019-04-07T13:03:41.720Z,14.07
2019-04-07T13:06:33.272Z,14.28
2019-04-07T13:09:21.500Z,15.70
2019-04-07T13:12:00.867Z,15.80
2019-04-07T13:14:50.236Z,16.32
2019-04-07T13:17:38.108Z,16.62
2019-04-07T13:20:22.346Z,17.25
2019-04-07T13:22:58.959Z,16.90
2019-04-07T13:25:54.441Z,15.83
2019-04-07T13:28:34.057Z,16.20
2019-04-07T13:31:21.992Z,15.98
2019-04-07T13:34:03.122Z,17.62
2019-04-07T13:37:03.453Z,18.10
2019-04-07T13:39:54.485Z,17.40
2019-04-07T13:42:34.253Z,18.15
2019-04-07T13:45:25.280Z,16.95
2019-04-07T13:48:05.431Z,18.32
2019-04-07T13:51:07.659Z,18.15
2019-04-07T13:53:50.168Z,17.05
2019-04-07T13:56:26.517Z,17.07
2019-04-07T13:59:11.377Z,18.25
2019-04-07T14:01:58.048Z,18.37
2019-04-07T14:04:39.674Z,17.82
2019-04-07T14:07:29.543Z,18.40
2019-04-07T14:10:10.212Z,18.15
2019-04-07T14:13:07.483Z,18.30
2019-04-07T14:15:56.479Z,18.15
2019-04-07T14:18:54.477Z,17.15
2019-04-07T14:21:42.946Z,16.50
2019-04-07T14:24:17.019Z,15.75
2019-04-07T14:27:03.249Z,15.15
2019-04-07T14:29:54.831Z,14.60
2019-04-07T14:33:01.344Z,13.40
2019-04-07T14:35:53.337Z,14.78
2019-04-07T14:38:36.703Z,14.60
2019-04-07T14:41:17.166Z,14.98
2019-04-07T14:44:27.012Z,14.90
2019-04-07T14:47:18.656Z,14.95
2019-04-07T14:50:00.590Z,14.43
2019-04-07T14:52:45.767Z,14.63
2019-04-07T14:55:31.160Z,14.63
2019-04-07T14:58:17.506Z,14.68
2019-04-07T15:01:08.394Z,15.30
2019-04-07T15:03:39.629Z,15.72
2019-04-07T15:06:08.735Z,15.65
2019-04-07T15:08:56.342Z,14.85
2019-04-07T15:11:45.541Z,15.45
2019-04-07T15:14:14.887Z,15.38
2019-04-07T15:16:43.940Z,15.43
2019-04-07T15:19:22.304Z,16.00
2019-04-07T15:21:53.898Z,15.72
2019-04-07T15:24:23.973Z,16.32
2019-04-07T15:26:54.739Z,17.40
2019-04-07T15:29:29.941Z,15.72
2019-04-07T15:32:07.479Z,16.67
2019-04-07T15:34:42.159Z,16.85
2019-04-07T15:37:13.134Z,16.50
2019-04-07T15:39:44.558Z,16.73
2019-04-07T15:42:31.423Z,15.95
2019-04-07T15:44:47.265Z,16.67
2019-04-07T15:47:16.860Z,16.40
2019-04-07T15:49:46.452Z,16.45
2019-04-07T15:52:15.195Z,15.85
2019-04-07T15:54:43.923Z,15.85
2019-04-07T15:57:13.174Z,16.02
2019-04-07T15:59:42.499Z,16.55
2019-04-07T16:02:13.312Z,15.95
2019-04-07T16:04:42.175Z,16.75
2019-04-07T16:07:14.501Z,16.35
2019-04-07T16:09:51.021Z,15.88
2019-04-07T16:12:14.515Z,15.90
2019-04-07T16:14:46.474Z,16.45
2019-04-07T16:17:14.486Z,15.85
2019-04-07T16:19:47.669Z,15.85
2019-04-07T16:22:14.654Z,16.35
2019-04-07T16:24:45.122Z,16.97
2019-04-07T16:27:15.081Z,17.45
2019-04-07T16:29:46.110Z,16.85
2019-04-07T16:32:16.008Z,16.77
2019-04-07T16:34:48.028Z,17.07
2019-04-07T16:37:16.807Z,17.48
2019-04-07T16:39:48.751Z,16.77
2019-04-07T16:42:17.465Z,16.50
2019-04-07T16:44:47.045Z,16.87
2019-04-07T16:47:21.054Z,16.30
2019-04-07T16:49:48.814Z,15.93
2019-04-07T16:52:18.848Z,16.85
2019-04-07T16:54:48.327Z,15.95
2019-04-07T16:57:17.317Z,15.78
2019-04-07T16:59:46.764Z,15.95
2019-04-07T17:02:17.917Z,16.93
2019-04-07T17:04:46.471Z,15.50
2019-04-07T17:07:16.840Z,16.23
2019-04-07T17:09:45.687Z,15.85
2019-04-07T17:12:15.024Z,16.42
2019-04-07T17:14:44.822Z,15.38
2019-04-07T17:17:18.300Z,16.27
2019-04-07T17:19:44.435Z,15.98
2019-04-07T17:22:15.692Z,16.32
2019-04-07T17:24:44.236Z,16.70
2019-04-07T17:27:13.115Z,16.07
2019-04-07T17:29:41.928Z,16.55
2019-04-07T17:32:10.934Z,16.87
2019-04-07T17:34:42.101Z,17.52
2019-04-07T17:37:11.741Z,17.10
2019-04-07T17:39:52.940Z,17.32
2019-04-07T17:42:25.831Z,17.15
2019-04-07T17:45:22.510Z,17.07
2019-04-07T17:48:10.199Z,17.65
2019-04-07T17:51:07.076Z,17.35
2019-04-07T17:54:00.574Z,18.50
2019-04-07T17:56:51.735Z,18.37
2019-04-07T17:59:38.926Z,17.82
2019-04-07T18:02:28.071Z,18.37
2019-04-07T18:05:26.523Z,19.27
2019-04-07T18:08:13.054Z,18.40
2019-04-07T18:10:54.090Z,18.77
2019-04-07T18:13:46.001Z,18.32
2019-04-07T18:16:37.856Z,17.85
2019-04-07T18:19:25.169Z,18.12
2019-04-07T18:22:20.466Z,17.30
2019-04-07T18:25:03.556Z,18.15
2019-04-07T18:27:36.968Z,18.07
2019-04-07T18:30:35.834Z,19.27
2019-04-07T18:33:25.807Z,18.65
2019-04-07T18:36:05.682Z,18.65
2019-04-07T18:39:03.395Z,18.82
2019-04-07T18:42:12.029Z,19.35
2019-04-07T18:45:02.394Z,19.23
2019-04-07T18:47:53.890Z,20.08
2019-04-07T18:50:30.745Z,19.92
2019-04-07T18:53:31.825Z,19.17
2019-04-07T18:56:25.281Z,19.87
2019-04-07T18:59:20.206Z,20.23
2019-04-07T19:02:16.278Z,20.20
2019-04-07T19:05:07.092Z,20.08
2019-04-07T19:08:04.081Z,20.35
2019-04-07T19:10:51.477Z,19.42
2019-04-07T19:13:41.337Z,19.82
2019-04-07T19:16:22.094Z,20.40
2019-04-07T19:19:09.428Z,20.27
2019-04-07T19:21:57.288Z,20.17
2019-04-07T19:24:44.098Z,19.50
2019-04-07T19:27:31.455Z,19.95
2019-04-07T19:30:28.015Z,19.25
2019-04-07T19:33:19.184Z,19.07
2019-04-07T19:36:06.031Z,19.12
2019-04-07T19:38:52.964Z,19.30
2019-04-07T19:41:47.256Z,19.27
2019-04-07T19:44:41.604Z,18.20
2019-04-07T19:47:20.551Z,18.57
2019-04-07T19:50:11.277Z,18.55
2019-04-07T19:53:04.975Z,18.20
2019-04-07T19:55:41.700Z,19.10
2019-04-07T19:58:23.276Z,18.25
2019-04-07T20:01:13.071Z,19.40
2019-04-07T20:04:00.021Z,18.57
2019-04-07T20:06:44.109Z,19.30
2019-04-07T20:09:39.495Z,19.50
2019-04-07T20:12:24.954Z,18.55
2019-04-07T20:15:19.992Z,18.67
2019-04-07T20:18:08.389Z,18.92
2019-04-07T20:20:46.646Z,18.57
2019-04-07T20:23:32.824Z,19.45
2019-04-07T20:26:28.388Z,19.73
2019-04-07T20:29:09.359Z,18.57
2019-04-07T20:32:10.973Z,19.20
2019-04-07T20:34:57.804Z,17.60
2019-04-07T20:37:36.778Z,18.20
2019-04-07T20:40:25.803Z,18.02
2019-04-07T20:43:06.411Z,18.17
2019-04-07T20:45:55.876Z,18.35
2019-04-07T20:48:47.790Z,18.67
2019-04-07T20:51:31.583Z,17.15
2019-04-07T20:54:18.355Z,17.70
2019-04-07T20:57:24.830Z,17.67
2019-04-07T21:00:29.565Z,17.12
2019-04-07T21:03:18.176Z,17.65
2019-04-07T21:05:59.858Z,17.40
2019-04-07T21:08:49.456Z,18.00
2019-04-07T21:11:34.381Z,16.23
2019-04-07T21:14:16.053Z,17.62
2019-04-07T21:17:09.413Z,16.75
2019-04-07T21:20:14.478Z,16.80
2019-04-07T21:23:02.875Z,16.82
2019-04-07T21:25:44.483Z,17.12
2019-04-07T21:28:18.831Z,17.15
2019-04-07T21:30:54.076Z,17.20
2019-04-07T21:33:49.630Z,16.30
2019-04-07T21:36:50.621Z,17.57
2019-04-07T21:39:30.306Z,17.67
2019-04-07T21:42:10.357Z,16.85
2019-04-07T21:45:10.930Z,17.77
2019-04-07T21:47:48.252Z,16.75
2019-04-07T21:50:38.379Z,16.10
2019-04-07T21:53:30.622Z,16.40
2019-04-07T21:56:36.948Z,17.23
2019-04-07T21:59:28.466Z,16.97
2019-04-07T22:02:17.400Z,17.15
2019-04-07T22:04:58.674Z,17.40
2019-04-07T22:08:08.759Z,16.73
2019-04-07T22:10:32.280Z,16.30
2019-04-07T22:13:04.121Z,18.47
2019-04-07T22:15:43.009Z,17.60
2019-04-07T22:18:08.952Z,16.77
2019-04-07T22:20:39.098Z,17.30
2019-04-07T22:23:09.659Z,17.40
2019-04-07T22:25:51.130Z,18.40
2019-04-07T22:28:20.891Z,17.70
2019-04-07T22:30:50.885Z,16.93
2019-04-07T22:33:22.915Z,16.57
2019-04-07T22:35:51.315Z,18.05
2019-04-07T22:38:32.049Z,17.03
2019-04-07T22:41:06.776Z,16.70
2019-04-07T22:43:34.969Z,17.20
2019-04-07T22:46:14.746Z,17.43
2019-04-07T22:48:36.464Z,16.87
2019-04-07T22:51:11.943Z,18.30
2019-04-07T22:53:38.930Z,17.80
2019-04-07T22:56:11.820Z,17.37
2019-04-07T22:58:41.038Z,18.03
2019-04-07T23:01:11.216Z,18.57
2019-04-07T23:03:41.143Z,17.73
2019-04-07T23:06:10.667Z,17.80
2019-04-07T23:08:41.142Z,17.37
2019-04-07T23:11:11.965Z,17.97
2019-04-07T23:13:40.922Z,19.70
2019-04-07T23:16:13.874Z,18.57
2019-04-07T23:18:40.543Z,18.43
2019-04-07T23:21:12.075Z,18.57
2019-04-07T23:23:42.272Z,18.73
2019-04-07T23:26:11.045Z,18.30
2019-04-07T23:28:40.227Z,17.77
2019-04-07T23:31:09.640Z,18.20
2019-04-07T23:33:39.043Z,17.07
2019-04-07T23:36:07.968Z,17.87
2019-04-07T23:38:37.148Z,17.37
2019-04-07T23:41:06.016Z,17.90
2019-04-07T23:43:35.537Z,18.33
2019-04-07T23:46:18.784Z,18.47
2019-04-07T23:48:40.447Z,19.57
2019-04-07T23:51:10.224Z,19.13
2019-04-07T23:54:08.662Z,18.80
2019-04-07T23:56:39.184Z,18.37
2019-04-07T23:59:08.356Z,19.37
